Aeroporto :
LOGIN :

Iscrizione | Disclaimer

   EN    FR    IT 

 










Sommario :    VFR   VFR Marginale   IFR   IFR Intensivo   IFR Molto Intensivo
Visibilità : 
Base nubi : 
>= 8 km
>= 3000ft
5 / 8 km
1000 / 3000 ft
1500m / 5 km
500 / 1000 ft
800 / 1500m
200 / 500 ft
< 800m
< 200 ft
Simboli :   Temporali  Nebbia  Neve Forte  Precipitazioni Forti  Vento > 20 kt
SIGMETs :   Varie  Temporali  Ghiacco  Turbolenza  Onda orograficha  Ceneri Vulcaniche







- Altitudine del aeroporto : 47 ft
- Codice IATA : CBG
- Carte del aeroporto


EGSC - Cambridge

ULTIMO METAR :
  • 260950Z 32007KT 9999 FEW025 09/04 Q1034

METARs OBSOLETI :
  • 260920Z 31007KT 9000 FEW025 08/03 Q1034
  • 260850Z 31007KT 7000 FEW040 07/03 Q1034
  • 260820Z 28006KT 5000 BR SCT003 05/03 Q1034
  • 260750Z 29007KT 4500 BR BKN003 03/02 Q1034

TAF TAF EGSC
Valido dal 26 a 09 ore il 26 a 18 ore UTC


260830Z 2609/2618 29008KT CAVOK
TEMPO 2609/2611 5000 BR BKN003
BECMG 2612/2615 BKN035
Nessun NOTAM noto per questo aeroporto.



MetMap, La meteo Aeronautica in un colpo d'occhio ! - Copyright ORBIFLY Dicembre 2007 - Disclaimer

ORBIFLY MET'MAP TEAM :

Programmazione e sviluppo : Alexandra Zaïnal
Concezione e sviluppo : Baudouin d'Aumeries
Co-Programmazione e sviluppo : Marc-Olivier Méhu
Supporto tecnico e logistico : Manuel Goepfert
Aiuto per la traduzione : Arnaldo La Scala

Contatto : metmap@orbifly.com




FONTI E CREDITI :

   NOAA